Current Application Queue

APP ID Queue # Qualify Date Process Status DER Type and Size Sub - Fdr - Phs
APP1257 1 7/24/2019 11:52:51 AM Simplified Interconnected Solar Photovoltaic 5.04 kW 222 - 22 - B
APP1436 2 7/25/2019 5:04:37 PM Simplified Interconnected Solar Photovoltaic 7.60 kW 93 - 1 - A
APP1442 3 7/25/2019 5:36:57 PM Simplified DER Installation and Interconnection Solar Photovoltaic kW 92 - 3 - C
APP1501 4 7/31/2019 5:09:39 PM Simplified Interconnected Solar Photovoltaic 18.60 kW 21 - 2 - C
APP1715 5 8/13/2019 1:46:50 PM Simplified Interconnected Solar Photovoltaic 10.44 kW 42 - 4 - A
APP1724 6 8/13/2019 4:50:47 PM Simplified Interconnected Solar Photovoltaic kW 26 - 2 - C
APP1770 7 8/16/2019 3:49:55 PM Fast Track Interconnected Solar Photovoltaic 22.50 kW 21 - 5 - A
APP1648 8 8/22/2019 7:59:27 PM Fast Track Interconnected Solar Photovoltaic 24.00 kW 7 - 4 - C
APP1886 9 8/23/2019 11:34:39 AM Simplified Interconnected Solar Photovoltaic 12.00 kW 30 - 2 - A
APP1718 10 9/6/2019 9:00:52 AM Fast Track Interconnected Solar Photovoltaic 22.80 kW 9 - 4 - C
APP2136 11 9/6/2019 11:47:51 AM Simplified Interconnected Solar Photovoltaic 12.00 kW 16 - 5 - C
APP2073 12 9/13/2019 5:51:38 PM Simplified Interconnected Solar Photovoltaic 16.08 kW 9 - 4 - A
APP2244 13 9/19/2019 9:23:00 AM Fast Track Interconnected Solar Photovoltaic 30.00 kW 13 - 4 - A
APP2203 14 9/24/2019 10:45:35 AM Simplified Interconnected Solar Photovoltaic 11.40 kW 13 - 6 - B
APP2394 15 10/3/2019 1:27:10 PM Simplified Interconnected Solar Photovoltaic 12.09 kW 202 - 2 - C
APP2449 16 10/9/2019 3:08:02 PM Simplified Interconnected Solar Photovoltaic 5.52 kW 7 - 2 - C
APP2453 17 10/9/2019 4:31:00 PM Simplified Interconnected Solar Photovoltaic 17.60 kW 16 - 4 - B
APP2486 18 10/16/2019 6:12:47 PM Simplified Interconnected Solar Photovoltaic 17.60 kW 95 - 3 - C
APP2506 19 10/24/2019 1:58:18 PM Simplified Interconnected Solar Photovoltaic 19.80 kW 11 - 4 - C
APP2491 20 10/28/2019 7:56:20 PM Simplified Interconnected Solar Photovoltaic 4.06 kW 31 - 1 - C
APP2575 21 11/7/2019 3:16:07 PM Simplified Interconnected Solar Photovoltaic 10.00 kW 7 - 4 - C
APP2643 22 11/26/2019 9:18:10 AM Simplified Interconnected Solar Photovoltaic 5.90 kW 9 - 4 - B
APP2619 23 11/26/2019 4:39:20 PM Simplified Interconnected Solar Photovoltaic 3.80 kW 11 - 1 - A
APP2603 24 12/3/2019 11:06:21 AM Simplified Interconnected Solar Photovoltaic 5.00 kW 62 - 3 - C
APP2498 25 12/18/2019 7:15:45 AM Simplified Interconnected Solar Photovoltaic 18.00 kW 62 - 1 - B
APP2817 26 2/3/2020 4:44:48 PM Simplified Interconnected Solar Photovoltaic 5.00 kW 42 - 4 - B
APP2763 27 2/10/2020 11:04:31 PM Simplified Interconnected Solar Photovoltaic 9.60 kW 10 - 5 - A
APP2884 28 2/23/2020 3:23:47 PM Simplified Interconnected Solar Photovoltaic 12.00 kW 62 - 5 - B
APP2894 29 2/27/2020 11:27:51 AM Simplified Interconnected Solar Photovoltaic 8.38 kW 3 - 4 - A
APP2905 30 3/2/2020 4:48:42 PM Simplified Interconnected Solar Photovoltaic 7.67 kW 1 - 3 - A
APP2915 31 3/16/2020 2:59:30 PM Simplified Interconnected Solar Photovoltaic 11.20 kW 41 - 11 - B
APP2957 32 3/19/2020 4:26:03 PM Simplified Interconnected Solar Photovoltaic 11.40 kW 210 - 2 - A
APP2929 33 3/23/2020 1:54:00 PM Simplified Interconnected Solar Photovoltaic 6.28 kW 8 - 2 - C
APP2953 34 3/23/2020 5:07:44 PM Simplified Interconnected Solar Photovoltaic 9.86 kW 93 - 1 - B
APP2946 35 3/30/2020 7:47:27 PM Simplified Interconnected Solar Photovoltaic 7.60 kW 216 - 6 - B
APP2998 36 3/31/2020 2:35:04 PM Simplified Interconnected Solar Photovoltaic 3.80 kW 15 - 2 - A
APP2973 37 4/1/2020 2:33:53 PM Fast Track Interconnected Solar Photovoltaic 30.00 kW 3 - 3 - A
APP3031 38 4/13/2020 11:23:02 AM Simplified Interconnected Solar Photovoltaic 10.44 kW 222 - 24 - A
APP3036 39 4/16/2020 4:07:53 PM Simplified Interconnected Solar Photovoltaic 12.54 kW 15 - 4 - C
APP3062 40 4/17/2020 11:52:38 AM Fast Track Interconnected Solar Photovoltaic 38.50 kW 21 - 5 - C
APP3071 41 4/23/2020 12:06:45 AM Fast Track Interconnected Solar Photovoltaic 38.00 kW 41 - 10 - B
APP3077 42 4/28/2020 5:32:14 PM Simplified Interconnected Solar Photovoltaic 11.20 kW 10 - 7 - C
APP3092 43 5/6/2020 7:01:46 AM Simplified Interconnected Solar Photovoltaic 6.00 kW 222 - 21 - C
APP3109 44 5/14/2020 2:31:13 PM Simplified Interconnected Solar Photovoltaic 9.00 kW 202 - 6 - A
APP3144 45 5/19/2020 8:19:20 PM Fast Track Interconnected Solar Photovoltaic 23.10 kW 91 - 3 - A
APP3161 46 5/22/2020 4:13:36 PM Simplified Interconnected Solar Photovoltaic 7.60 kW 61 - 9 - B
APP3181 47 5/29/2020 5:02:44 PM Simplified Interconnected Solar Photovoltaic 6.28 kW 15 - 4 - C
APP3146 48 6/3/2020 11:25:03 AM Simplified Interconnected Solar Photovoltaic 11.16 kW 7 - 4 - C
APP3151 49 6/3/2020 5:30:02 PM Simplified Interconnected Solar Photovoltaic 5.00 kW 41 - 9 - C
APP3211 50 6/8/2020 11:22:17 AM Simplified Interconnected Solar Photovoltaic 18.40 kW 42 - 2 - C
APP3213 51 6/8/2020 11:30:30 AM Simplified Interconnected Solar Photovoltaic 15.20 kW 1 - 2 - C
APP3234 52 6/15/2020 9:36:59 AM Simplified Interconnected Solar Photovoltaic 6.00 kW 97 - 4 - A
APP3216 53 6/17/2020 1:09:09 PM Fast Track Interconnected Solar Photovoltaic 15.40 kW 21 - 2 - B
APP3244 54 6/17/2020 4:02:35 PM Simplified Interconnected Solar Photovoltaic 4.53 kW 41 - 7 - C
APP3254 55 6/18/2020 11:56:49 AM Simplified Interconnected Solar Photovoltaic 9.60 kW 42 - 2 - A
APP3199 56 6/19/2020 4:50:02 PM Fast Track Interconnected Solar Photovoltaic 39.20 kW 3 - 1 - C
APP3278 57 6/29/2020 3:46:53 PM Simplified Interconnected Solar Photovoltaic 15.70 kW 13 - 2 - C
APP3169 58 7/9/2020 1:49:22 AM Simplified Pending Contract (Customer) Solar Photovoltaic 5.37 kW 95 - 2 - ABC
APP3308 59 7/14/2020 9:02:18 AM Simplified Interconnected Solar Photovoltaic 17.40 kW 16 - 5 - C
APP3347 60 7/19/2020 2:48:33 PM Simplified DER Installation and Interconnection Solar Photovoltaic 6.00 kW 62 - 4 - B
APP3350 61 7/20/2020 10:21:44 AM Simplified Interconnected Solar Photovoltaic 6.00 kW 1 - 3 - A
APP3362 62 7/23/2020 10:20:33 AM Simplified Interconnected Solar Photovoltaic 8.37 kW 11 - 3 - A
APP3374 63 7/24/2020 3:30:57 PM Simplified Interconnected Solar Photovoltaic 17.60 kW 2 - 5 - A
APP3396 64 7/30/2020 1:29:11 PM Simplified Interconnected Solar Photovoltaic 5.04 kW 13 - 2 - A
APP3400 65 7/31/2020 2:54:16 PM Simplified Interconnected Solar Photovoltaic 12.00 kW 9 - 4 - B
APP3338 66 8/4/2020 2:00:03 PM Simplified Interconnected Solar Photovoltaic 10.00 kW 16 - 5 - C
APP3197 67 8/6/2020 11:32:00 AM Simplified Interconnected Solar Photovoltaic 13.96 kW 9 - 2 - C
APP3431 68 8/10/2020 3:58:48 PM Simplified Interconnected Solar Photovoltaic 7.60 kW 1 - 1 - C
APP3432 69 8/11/2020 6:10:01 PM Simplified Interconnected Solar Photovoltaic 5.04 kW 13 - 6 - B
APP3438 70 8/12/2020 11:42:04 AM Simplified Interconnected Solar Photovoltaic 17.60 kW 5 - 6 - C
APP3444 71 8/26/2020 3:16:05 PM Simplified Interconnected Solar Photovoltaic 7.54 kW 11 - 3 - A
APP3486 72 8/27/2020 12:20:13 PM Simplified Interconnected Solar Photovoltaic 4.53 kW 2 - 6 - A
APP3448 73 8/28/2020 5:06:07 PM Simplified Interconnected Solar Photovoltaic 5.04 kW 15 - 2 - B
APP3503 74 9/1/2020 12:35:27 PM Simplified Interconnected Solar Photovoltaic 11.60 kW 2 - 5 - C
APP3490 75 9/2/2020 5:16:19 PM Simplified Interconnected Solar Photovoltaic 7.60 kW 7 - 4 - C
APP3524 76 9/3/2020 7:19:26 PM Simplified Interconnected Solar Photovoltaic 7.60 kW 5 - 5 - C
APP3534 77 9/10/2020 1:34:31 PM Simplified Interconnected Solar Photovoltaic 8.37 kW 1 - 1 - B
APP3544 78 9/10/2020 5:03:46 PM Fast Track Interconnected Solar Photovoltaic 28.80 kW 16 - 5 - ABC
APP3469 79 9/13/2020 6:25:57 PM Simplified Interconnected Solar Photovoltaic 10.00 kW 10 - 7 - B
APP3561 80 9/14/2020 7:19:40 PM Simplified Interconnected Solar Photovoltaic 7.60 kW 1 - 1 - A
APP3587 81 9/17/2020 3:51:16 PM Simplified Interconnected Solar Photovoltaic 16.75 kW 42 - 4 - B
APP3605 82 9/19/2020 6:36:48 AM Simplified Interconnected Solar Photovoltaic 10.47 kW 95 - 1 - C
APP3604 83 9/21/2020 9:41:55 PM Simplified Interconnected Solar Photovoltaic 9.18 kW 26 - 2 - A
APP3562 84 9/23/2020 1:25:27 PM Simplified Interconnected Solar Photovoltaic 11.40 kW 11 - 2 - B
APP3667 85 9/29/2020 9:14:40 AM Simplified Inspection and Testing Solar Photovoltaic 12.00 kW 8 - 3 - B
APP3674 86 9/29/2020 11:24:16 AM Simplified Interconnected Solar Photovoltaic 9.28 kW 8 - 3 - A
APP3646 87 9/29/2020 1:16:32 PM Simplified Interconnected Solar Photovoltaic 9.77 kW 15 - 2 - C
APP3650 88 9/30/2020 3:32:08 PM Simplified Interconnected Solar Photovoltaic 3.80 kW 3 - 2 - B
APP3652 89 10/5/2020 10:02:42 PM Simplified DER Installation and Interconnection Solar Photovoltaic 7.60 kW 3 - 1 - A
APP3713 90 10/8/2020 3:23:42 PM Simplified Interconnected Solar Photovoltaic 4.48 kW 11 - 4 - C
APP3669 91 10/10/2020 3:43:40 PM Simplified Inspection and Testing Solar Photovoltaic 0.92 kW 1 - 3 - B
APP3750 92 10/13/2020 4:37:27 PM Simplified Interconnected Solar Photovoltaic 5.00 kW 5 - 2 - A
APP3763 93 10/15/2020 2:12:37 PM Simplified Interconnected Solar Photovoltaic 11.40 kW 42 - 3 - B
APP3728 94 10/22/2020 7:35:22 AM Simplified Interconnected Solar Photovoltaic 20.00 kW 16 - 3 - B
APP3761 95 10/28/2020 1:59:53 PM Simplified DER Installation and Interconnection Solar Photovoltaic 7.60 kW 42 - 4 - A
APP3826 96 10/29/2020 12:23:52 PM Fast Track Interconnected Solar Photovoltaic 39.90 kW 5 - 6 - C
APP3732 97 11/4/2020 2:44:47 PM Simplified Interconnected Solar Photovoltaic 5.00 kW 5 - 2 - C
APP3918 98 11/18/2020 4:47:50 PM Fast Track Interconnected Solar Photovoltaic 21.00 kW 9 - 2 - B
APP3941 99 11/20/2020 10:25:07 AM Simplified Interconnected Solar Photovoltaic 9.77 kW 7 - 4 - C
APP3940 100 11/20/2020 5:26:55 PM Simplified DER Installation and Interconnection Solar Photovoltaic 11.60 kW 8 - 3 - ABC
APP3816 101 11/24/2020 3:10:38 PM Simplified DER Installation and Interconnection Solar Photovoltaic 5.00 kW 96 - 1 - C
APP3947 102 12/2/2020 11:42:22 AM Simplified Inspection and Testing Solar Photovoltaic 9.28 kW 62 - 4 - B
APP3970 103 12/2/2020 1:21:47 PM Fast Track DER Installation and Interconnection Solar Photovoltaic 38.50 kW 61 - 9 - A
APP3977 104 12/7/2020 7:52:23 PM Simplified Pending Contract (Customer) Solar Photovoltaic 5.00 kW 5 - 4 - A
APP3973 105 12/9/2020 2:42:40 PM Simplified DER Installation and Interconnection Solar Photovoltaic 20.00 kW 41 - 7 - B
APP3946 106 12/9/2020 2:46:55 PM Simplified Interconnected Solar Photovoltaic 7.54 kW 95 - 2 - B
APP3975-Storage 107 12/10/2020 4:50:35 PM Simplified DER Installation and Interconnection Energy Storage 18.12 kW 2 - 5 - C
APP3975-Storage 108 12/10/2020 4:50:35 PM Simplified DER Installation and Interconnection Energy Storage 18.12 kW 2 - 5 - C
APP3987 109 12/11/2020 10:13:25 AM Simplified Interconnected Solar Photovoltaic 20.00 kW 5 - 6 - C
APP3997 110 12/17/2020 5:25:28 PM Simplified DER Installation and Interconnection Solar Photovoltaic 10.47 kW 16 - 4 - B
APP3939 111 12/21/2020 9:17:49 PM Simplified DER Installation and Interconnection Solar Photovoltaic 8.37 kW 92 - 4 - C
APP4034 112 1/7/2021 4:00:53 PM Fast Track DER Installation and Interconnection Solar Photovoltaic 20.00 kW 41 - 10 - C
APP4037 113 1/14/2021 1:16:23 PM Simplified Interconnected Solar Photovoltaic 3.80 kW 42 - 1 - A
APP4052 114 1/15/2021 5:54:53 PM Simplified Interconnected Solar Photovoltaic 3.80 kW 9 - 4 - A
APP4085 115 1/29/2021 2:56:43 PM Simplified DER Installation and Interconnection Solar Photovoltaic 5.00 kW 13 - 2 - C
APP4126 116 2/12/2021 11:00:09 AM Simplified DER Installation and Interconnection Solar Photovoltaic 15.95 kW 62 - 3 - B
APP4057 117 2/19/2021 4:13:02 PM Simplified Inspection and Testing Solar Photovoltaic 7.60 kW 41 - 6 - C
APP4239 118 3/2/2021 9:19:46 PM Simplified Interconnected Solar Photovoltaic 6.00 kW 42 - 3 - A
APP4250 119 3/6/2021 3:39:13 PM Simplified DER Installation and Interconnection Solar Photovoltaic 6.98 kW 41 - 9 - C
APP4275 120 3/10/2021 12:52:21 PM Simplified DER Installation and Interconnection Solar Photovoltaic 7.67 kW 16 - 4 - C
APP4155 121 3/10/2021 3:51:35 PM Simplified Interconnected Solar Photovoltaic 10.60 kW 62 - 3 - B
APP4271 122 3/10/2021 7:30:21 PM Simplified Interconnected Solar Photovoltaic 10.00 kW 8 - 2 - A
APP4298 123 3/16/2021 3:04:10 PM Simplified DER Installation and Interconnection Solar Photovoltaic 10.73 kW 93 - 3 - C
APP4218 124 3/31/2021 9:17:13 AM Simplified DER Installation and Interconnection Solar Photovoltaic 15.20 kW 7 - 4 - B
APP4386 125 4/2/2021 3:48:34 PM Simplified DER Installation and Interconnection Solar Photovoltaic 5.22 kW 2 - 8 - C
APP4444 126 4/16/2021 1:55:52 PM Simplified DER Installation and Interconnection Solar Photovoltaic 4.18 kW 17 - 4 - C
APP4395 127 4/18/2021 6:07:42 PM Simplified Pending Engineer Review Solar Photovoltaic 5.00 kW 61 - 9 - A
APP4429 128 4/21/2021 3:08:38 PM Simplified Pending Contract (Customer) Solar Photovoltaic 3.80 kW 222 - 22 - C
APP4437 129 4/29/2021 8:26:10 AM Simplified Pending Engineer Review Solar Photovoltaic 3.80 kW 42 - 3 - A
APP4404 130 4/29/2021 4:26:17 PM Simplified Pending Engineer Review Solar Photovoltaic 11.40 kW 216 - 6 - A
APP4517 131 5/4/2021 1:15:28 PM Simplified Pending Engineer Review Solar Photovoltaic 10.44 kW 42 - 1 - A
APP4516 132 5/5/2021 3:13:55 PM Simplified Pending Engineer Review Solar Photovoltaic 10.00 kW 33 - 3 - A
APP4527 133 5/5/2021 7:18:37 PM Simplified Pending Engineer Review Solar Photovoltaic 7.60 kW 35 - 4 - A
APP4539 134 5/6/2021 11:19:52 PM Simplified Pending Engineer Review Solar Photovoltaic 5.00 kW 222 - 22 - C
APP4465 135 5/7/2021 1:15:37 PM Fast Track Pending Engineer Review Solar Photovoltaic 39.99 kW 8 - 3 - A
APP4420 136 5/7/2021 5:10:53 PM Simplified Pending Engineer Review Solar Photovoltaic 5.00 kW 61 - 7 - A
APP4474 137 5/10/2021 1:27:29 PM Fast Track Pending Engineer Review Solar Photovoltaic 22.80 kW 2 - 5 - B
APP4532 138 5/11/2021 10:27:20 AM Simplified Pending Engineer Review Solar Photovoltaic 21.00 kW 10 - 7 - B
APP4557 139 5/14/2021 3:30:45 PM Simplified Pending Initial Review Solar Photovoltaic 9.80 kW - -
APP4353 140 5/14/2021 4:19:55 PM Simplified Pending Initial Review Solar Photovoltaic 7.60 kW - -

 

 

  © 2021 - Application developed and maintained by STAR Energy Services LLC